createdAt,value
2022-07-31T00:01:38.347Z,13.27
2022-07-31T00:04:05.110Z,14.10
2022-07-31T00:06:31.791Z,12.10
2022-07-31T00:08:58.423Z,15.32
2022-07-31T00:11:25.062Z,13.80
2022-07-31T00:13:58.223Z,17.85
2022-07-31T00:16:25.788Z,20.58
2022-07-31T00:18:52.534Z,16.60
2022-07-31T00:21:19.498Z,16.02
2022-07-31T00:23:46.204Z,13.77
2022-07-31T00:26:12.839Z,14.45
2022-07-31T00:28:39.497Z,13.88
2022-07-31T00:31:06.124Z,17.40
2022-07-31T00:33:32.803Z,20.63
2022-07-31T00:35:59.552Z,14.73
2022-07-31T00:38:27.285Z,16.88
2022-07-31T00:40:54.604Z,14.48
2022-07-31T00:43:21.476Z,25.73
2022-07-31T00:45:53.223Z,16.10
2022-07-31T00:48:26.055Z,13.30
2022-07-31T00:50:54.945Z,14.98
2022-07-31T00:53:21.610Z,22.02
2022-07-31T00:55:51.989Z,12.77
2022-07-31T00:58:19.888Z,14.40
2022-07-31T01:00:47.084Z,14.32
2022-07-31T01:03:14.393Z,16.05
2022-07-31T01:05:41.726Z,18.80
2022-07-31T01:08:08.482Z,15.93
2022-07-31T01:10:57.602Z,14.93
2022-07-31T01:13:35.800Z,23.45
2022-07-31T01:16:04.860Z,17.27
2022-07-31T01:18:36.038Z,23.63
2022-07-31T01:21:11.185Z,16.33
2022-07-31T01:23:54.789Z,15.80
2022-07-31T01:26:43.302Z,13.20
2022-07-31T01:29:43.594Z,15.25
2022-07-31T01:32:28.899Z,24.30
2022-07-31T01:35:06.273Z,18.10
2022-07-31T01:37:58.296Z,18.77
2022-07-31T01:40:40.184Z,16.30
2022-07-31T01:43:12.471Z,15.50
2022-07-31T01:45:42.702Z,19.48
2022-07-31T01:48:14.507Z,18.77
2022-07-31T01:50:47.510Z,16.92
2022-07-31T01:53:19.894Z,16.42
2022-07-31T01:58:34.800Z,14.45
2022-07-31T02:01:03.980Z,15.00
2022-07-31T02:03:44.389Z,19.50
2022-07-31T02:06:15.018Z,17.52
2022-07-31T02:08:45.781Z,17.45
2022-07-31T02:11:14.029Z,15.85
2022-07-31T02:13:40.845Z,17.08
2022-07-31T02:16:08.196Z,20.60
2022-07-31T02:18:35.348Z,21.67
2022-07-31T02:21:02.111Z,18.52
2022-07-31T02:23:28.776Z,20.48
2022-07-31T02:25:55.836Z,17.40
2022-07-31T02:28:24.430Z,19.15
2022-07-31T02:30:51.755Z,20.25
2022-07-31T02:33:21.498Z,17.88
2022-07-31T02:35:56.218Z,18.13
2022-07-31T02:38:26.474Z,17.23
2022-07-31T02:40:59.141Z,19.73
2022-07-31T02:43:27.491Z,16.83
2022-07-31T02:45:56.155Z,18.92
2022-07-31T02:48:23.980Z,24.08
2022-07-31T02:50:51.114Z,26.45
2022-07-31T02:53:18.077Z,21.98
2022-07-31T02:55:46.482Z,17.48
2022-07-31T02:58:14.219Z,18.02
2022-07-31T03:00:41.126Z,17.90
2022-07-31T03:03:07.948Z,17.67
2022-07-31T03:05:34.614Z,18.20
2022-07-31T03:08:01.252Z,16.73
2022-07-31T03:10:27.982Z,15.15
2022-07-31T03:12:55.600Z,17.63
2022-07-31T03:15:25.606Z,19.83
2022-07-31T03:17:53.802Z,17.08
2022-07-31T03:20:21.510Z,19.95
2022-07-31T03:22:48.988Z,16.20
2022-07-31T03:25:21.863Z,19.38
2022-07-31T03:27:55.432Z,16.83
2022-07-31T03:30:26.824Z,16.38
2022-07-31T03:32:54.785Z,20.45
2022-07-31T03:35:21.988Z,18.92
2022-07-31T03:37:48.593Z,22.25
2022-07-31T03:40:15.399Z,19.25
2022-07-31T03:42:43.090Z,15.45
2022-07-31T03:45:12.339Z,17.48
2022-07-31T03:47:39.462Z,18.65
2022-07-31T03:50:07.786Z,20.85
2022-07-31T03:52:35.251Z,22.80
2022-07-31T03:55:02.719Z,19.42
2022-07-31T03:57:31.346Z,18.95
2022-07-31T04:00:02.564Z,19.63
2022-07-31T04:02:30.093Z,20.60
2022-07-31T04:04:58.993Z,19.30
2022-07-31T04:07:25.796Z,17.33
2022-07-31T04:09:52.522Z,19.42
2022-07-31T04:12:19.363Z,20.05
2022-07-31T04:14:46.430Z,19.40
2022-07-31T04:17:13.210Z,19.67
2022-07-31T04:19:40.245Z,20.50
2022-07-31T04:22:07.618Z,20.55
2022-07-31T04:24:34.580Z,18.63
2022-07-31T04:27:01.299Z,17.38
2022-07-31T04:29:29.451Z,18.02
2022-07-31T04:31:56.431Z,18.98
2022-07-31T04:34:23.092Z,25.70
2022-07-31T04:36:49.879Z,19.05
2022-07-31T04:39:16.612Z,18.25
2022-07-31T04:41:44.122Z,23.20
2022-07-31T04:44:10.795Z,21.50
2022-07-31T04:46:37.688Z,20.75
2022-07-31T04:49:04.643Z,22.73
2022-07-31T04:51:31.385Z,25.90
2022-07-31T04:53:58.081Z,18.70
2022-07-31T04:56:33.796Z,19.35
2022-07-31T04:59:02.728Z,24.88
2022-07-31T05:01:29.475Z,26.23
2022-07-31T05:03:56.194Z,20.27
2022-07-31T05:06:22.863Z,17.90
2022-07-31T05:08:49.519Z,16.63
2022-07-31T05:11:25.073Z,14.52
2022-07-31T05:13:56.022Z,19.35
2022-07-31T05:16:24.486Z,15.63
2022-07-31T05:18:54.144Z,17.40
2022-07-31T05:21:21.477Z,14.05
2022-07-31T05:23:49.450Z,18.60
2022-07-31T05:26:17.788Z,17.73
2022-07-31T05:28:46.641Z,15.30
2022-07-31T05:31:13.573Z,19.02
2022-07-31T05:33:40.315Z,13.48
2022-07-31T05:36:07.600Z,17.90
2022-07-31T05:38:34.907Z,15.45
2022-07-31T05:41:01.560Z,15.32
2022-07-31T05:43:28.298Z,19.38
2022-07-31T05:45:55.465Z,15.13
2022-07-31T05:48:22.522Z,18.75
2022-07-31T05:50:50.954Z,18.13
2022-07-31T05:53:18.642Z,18.00
2022-07-31T05:55:46.966Z,17.38
2022-07-31T05:58:16.979Z,17.40
2022-07-31T06:00:45.692Z,14.23
2022-07-31T06:03:13.235Z,15.73
2022-07-31T06:05:40.922Z,19.85
2022-07-31T06:08:09.532Z,17.60
2022-07-31T06:10:37.282Z,16.15
2022-07-31T06:13:05.182Z,16.08
2022-07-31T06:15:36.076Z,12.25
2022-07-31T06:18:04.034Z,15.40
2022-07-31T06:20:30.897Z,16.77
2022-07-31T06:22:57.740Z,16.75
2022-07-31T06:25:24.911Z,26.30
2022-07-31T06:27:59.281Z,13.52
2022-07-31T06:30:27.732Z,15.82
2022-07-31T06:32:54.431Z,17.30
2022-07-31T06:35:21.075Z,13.82
2022-07-31T06:37:47.766Z,19.58
2022-07-31T06:40:14.527Z,17.65
2022-07-31T06:42:41.923Z,12.68
2022-07-31T06:45:09.296Z,11.55
2022-07-31T06:47:35.994Z,14.77
2022-07-31T06:50:03.483Z,17.67
2022-07-31T06:52:30.258Z,13.63
2022-07-31T06:54:56.981Z,15.77
2022-07-31T06:57:23.632Z,13.38
2022-07-31T06:59:50.288Z,13.68
2022-07-31T07:02:17.113Z,14.95
2022-07-31T07:05:04.443Z,12.75
2022-07-31T07:07:31.764Z,12.52
2022-07-31T07:09:59.355Z,16.92
2022-07-31T07:12:26.808Z,16.80
2022-07-31T07:14:55.078Z,20.38
2022-07-31T07:17:25.885Z,10.60
2022-07-31T07:19:55.843Z,10.30
2022-07-31T07:22:31.533Z,9.05
2022-07-31T07:24:58.981Z,11.85
2022-07-31T07:27:25.782Z,10.73
2022-07-31T07:29:52.417Z,8.43
2022-07-31T07:32:19.024Z,8.40
2022-07-31T07:34:45.733Z,9.27
2022-07-31T07:37:12.627Z,9.68
2022-07-31T07:39:39.263Z,13.02
2022-07-31T07:42:06.438Z,7.10
2022-07-31T07:44:33.254Z,11.00
2022-07-31T07:46:59.899Z,8.32
2022-07-31T07:49:26.651Z,7.00
2022-07-31T07:51:59.725Z,6.05
2022-07-31T07:54:26.938Z,9.48
2022-07-31T07:56:54.887Z,8.82
2022-07-31T07:59:21.786Z,9.88
2022-07-31T08:01:48.571Z,6.28
2022-07-31T08:04:15.208Z,11.07
2022-07-31T08:06:41.886Z,5.18
2022-07-31T08:09:08.593Z,8.95
2022-07-31T08:11:35.273Z,6.75
2022-07-31T08:14:01.917Z,6.82
2022-07-31T08:16:28.550Z,4.90
2022-07-31T08:18:55.194Z,4.97
2022-07-31T08:21:21.892Z,8.70
2022-07-31T08:23:48.714Z,4.63
2022-07-31T08:26:15.445Z,8.77
2022-07-31T08:28:50.163Z,5.47
2022-07-31T08:31:18.762Z,4.82
2022-07-31T08:33:45.435Z,6.53
2022-07-31T08:36:12.521Z,4.38
2022-07-31T08:38:39.683Z,3.38
2022-07-31T08:41:06.343Z,5.18
2022-07-31T08:44:01.927Z,4.00
2022-07-31T08:46:21.605Z,4.90
2022-07-31T08:48:53.290Z,6.28
2022-07-31T08:51:22.525Z,3.65
2022-07-31T08:53:51.334Z,3.60
2022-07-31T08:56:19.617Z,3.67
2022-07-31T08:58:46.903Z,7.43
2022-07-31T09:01:15.199Z,6.72
2022-07-31T09:03:42.270Z,20.58
2022-07-31T09:06:08.965Z,4.70
2022-07-31T09:08:37.186Z,4.63
2022-07-31T09:11:09.687Z,11.40
2022-07-31T09:13:37.461Z,4.85
2022-07-31T09:16:05.644Z,7.60
2022-07-31T09:18:33.065Z,6.95
2022-07-31T09:21:02.404Z,5.50
2022-07-31T09:23:30.225Z,3.83
2022-07-31T09:26:03.088Z,10.82
2022-07-31T09:28:36.041Z,7.45
2022-07-31T09:31:03.995Z,5.32
2022-07-31T09:33:31.541Z,4.18
2022-07-31T09:35:59.726Z,4.90
2022-07-31T09:38:35.401Z,6.63
2022-07-31T09:41:56.812Z,5.43
2022-07-31T09:44:11.017Z,4.07
2022-07-31T09:46:49.638Z,4.15
2022-07-31T09:49:17.012Z,3.88
2022-07-31T09:51:46.889Z,4.18
2022-07-31T09:54:25.214Z,4.47
2022-07-31T09:56:52.285Z,5.15
2022-07-31T09:59:19.168Z,4.72
2022-07-31T10:01:48.862Z,11.60
2022-07-31T10:04:21.156Z,5.90
2022-07-31T10:09:19.902Z,10.05
2022-07-31T10:11:48.354Z,4.63
2022-07-31T10:14:32.294Z,6.53
2022-07-31T10:17:01.009Z,11.98
2022-07-31T10:19:36.612Z,3.25
2022-07-31T10:22:05.143Z,3.35
2022-07-31T10:24:42.671Z,4.72
2022-07-31T10:27:10.920Z,4.32
2022-07-31T10:29:40.778Z,6.35
2022-07-31T10:32:08.841Z,9.35
2022-07-31T10:34:35.866Z,5.75
2022-07-31T10:37:13.250Z,4.05
2022-07-31T10:40:12.893Z,7.25
2022-07-31T10:42:48.502Z,8.57
2022-07-31T10:45:16.386Z,5.72
2022-07-31T10:48:00.213Z,4.32
2022-07-31T10:50:30.343Z,4.53
2022-07-31T10:53:09.324Z,4.65
2022-07-31T10:55:37.255Z,5.20
2022-07-31T10:58:14.295Z,9.07
2022-07-31T11:00:41.552Z,4.07
2022-07-31T11:03:19.439Z,3.85
2022-07-31T11:06:01.902Z,3.83
2022-07-31T11:08:40.095Z,13.27
2022-07-31T11:11:06.858Z,5.82
2022-07-31T11:13:44.285Z,11.43
2022-07-31T11:16:10.897Z,5.80
2022-07-31T11:18:37.662Z,3.83
2022-07-31T11:21:22.848Z,3.65
2022-07-31T11:23:56.452Z,3.70
2022-07-31T11:26:32.963Z,8.57
2022-07-31T11:30:01.430Z,3.88
2022-07-31T11:31:55.293Z,10.15
2022-07-31T11:34:21.962Z,4.28
2022-07-31T11:36:51.444Z,10.35
2022-07-31T11:39:37.009Z,15.50
2022-07-31T11:42:05.094Z,4.57
2022-07-31T11:44:34.842Z,3.60
2022-07-31T11:47:01.755Z,13.43
2022-07-31T11:49:47.920Z,5.78
2022-07-31T11:52:31.231Z,4.85
2022-07-31T11:55:08.809Z,4.78
2022-07-31T11:57:51.236Z,4.15
2022-07-31T12:00:26.553Z,8.57
2022-07-31T12:02:57.366Z,5.00
2022-07-31T12:05:37.630Z,6.78
2022-07-31T12:08:06.768Z,3.28
2022-07-31T12:10:33.853Z,3.67
2022-07-31T12:13:01.829Z,4.75
2022-07-31T12:15:28.515Z,8.02
2022-07-31T12:18:03.303Z,19.70
2022-07-31T12:20:38.490Z,4.05
2022-07-31T12:23:06.053Z,4.03
2022-07-31T12:25:43.412Z,4.93
2022-07-31T12:28:12.834Z,6.85
2022-07-31T12:30:39.640Z,5.82
2022-07-31T12:33:08.396Z,4.22
2022-07-31T12:35:38.431Z,8.88
2022-07-31T12:38:47.572Z,5.43
2022-07-31T12:41:15.182Z,3.08
2022-07-31T12:43:50.211Z,4.80
2022-07-31T12:46:22.788Z,6.35
2022-07-31T12:48:49.741Z,4.47
2022-07-31T12:51:18.569Z,4.80
2022-07-31T12:53:46.813Z,3.58
2022-07-31T12:56:14.086Z,4.53
2022-07-31T12:58:40.754Z,4.50
2022-07-31T13:01:07.453Z,5.20
2022-07-31T13:03:38.856Z,5.00
2022-07-31T13:06:13.598Z,4.60
2022-07-31T13:08:40.229Z,10.18
2022-07-31T13:11:06.878Z,4.40
2022-07-31T13:13:33.558Z,4.07
2022-07-31T13:16:00.526Z,3.38
2022-07-31T13:18:27.180Z,5.60
2022-07-31T13:20:53.842Z,4.85
2022-07-31T13:23:21.400Z,4.70
2022-07-31T13:25:48.237Z,4.13
2022-07-31T13:28:15.033Z,4.70
2022-07-31T13:30:41.714Z,3.38
2022-07-31T13:33:08.413Z,5.78
2022-07-31T13:35:35.055Z,3.58
2022-07-31T13:38:01.711Z,4.35
2022-07-31T13:40:47.519Z,6.57
2022-07-31T13:43:15.183Z,3.53
2022-07-31T13:45:41.815Z,6.32
2022-07-31T13:48:10.048Z,5.93
2022-07-31T13:50:39.425Z,3.83
2022-07-31T13:53:06.145Z,4.70
2022-07-31T13:55:33.088Z,3.92
2022-07-31T13:57:59.885Z,5.28
2022-07-31T14:00:29.206Z,10.05
2022-07-31T14:02:55.886Z,4.65
2022-07-31T14:05:25.821Z,6.13
2022-07-31T14:07:54.333Z,3.80
2022-07-31T14:10:21.927Z,4.78
2022-07-31T14:12:50.109Z,3.65
2022-07-31T14:15:18.112Z,4.68
2022-07-31T14:17:45.003Z,5.72
2022-07-31T14:20:12.619Z,4.30
2022-07-31T14:22:39.462Z,7.78
2022-07-31T14:25:06.268Z,5.60
2022-07-31T14:27:34.410Z,5.82
2022-07-31T14:30:04.347Z,3.88
2022-07-31T14:32:31.675Z,4.50
2022-07-31T14:34:58.432Z,14.18
2022-07-31T14:37:25.168Z,7.43
2022-07-31T14:39:52.109Z,3.50
2022-07-31T14:42:22.410Z,4.28
2022-07-31T14:44:53.356Z,6.13
2022-07-31T14:47:20.086Z,8.38
2022-07-31T14:50:08.373Z,7.85
2022-07-31T14:52:33.809Z,3.53
2022-07-31T14:55:01.152Z,4.95
2022-07-31T14:57:28.724Z,4.90
2022-07-31T14:59:55.542Z,9.52
2022-07-31T15:02:23.010Z,4.40
2022-07-31T15:04:53.682Z,6.28
2022-07-31T15:07:39.716Z,6.20
2022-07-31T15:10:08.942Z,3.58
2022-07-31T15:12:35.798Z,8.05
2022-07-31T15:15:02.632Z,4.55
2022-07-31T15:17:29.540Z,4.55
2022-07-31T15:19:56.186Z,6.80
2022-07-31T15:22:22.858Z,3.90
2022-07-31T15:24:50.388Z,5.68
2022-07-31T15:27:18.195Z,3.47
2022-07-31T15:30:05.822Z,2.08
2022-07-31T15:32:31.702Z,4.47
2022-07-31T15:34:58.330Z,3.30
2022-07-31T15:37:25.035Z,5.63
2022-07-31T15:40:02.503Z,2.88
2022-07-31T15:42:40.896Z,5.57
2022-07-31T15:45:10.654Z,5.50
2022-07-31T15:47:38.303Z,16.25
2022-07-31T15:50:06.989Z,5.28
2022-07-31T15:52:33.706Z,9.27
2022-07-31T15:55:00.407Z,16.90
2022-07-31T15:57:27.415Z,7.75
2022-07-31T15:59:54.602Z,3.35
2022-07-31T16:02:22.226Z,4.45
2022-07-31T16:04:52.910Z,4.47
2022-07-31T16:08:31.906Z,5.15
2022-07-31T16:10:16.492Z,7.93
2022-07-31T16:12:45.758Z,4.40
2022-07-31T16:15:12.931Z,4.38
2022-07-31T16:17:40.298Z,6.15
2022-07-31T16:20:13.479Z,35.55
2022-07-31T16:23:01.349Z,36.30
2022-07-31T16:25:30.093Z,19.38
2022-07-31T16:27:59.181Z,15.38
2022-07-31T16:30:27.234Z,21.55
2022-07-31T16:32:54.627Z,8.13
2022-07-31T16:35:21.422Z,9.32
2022-07-31T16:37:50.127Z,6.75
2022-07-31T16:40:28.533Z,5.55
2022-07-31T16:43:51.029Z,9.80
2022-07-31T16:45:52.231Z,10.13
2022-07-31T16:48:19.254Z,9.43
2022-07-31T16:50:52.880Z,5.70
2022-07-31T16:54:13.697Z,9.60
2022-07-31T16:56:13.343Z,5.97
2022-07-31T16:58:40.527Z,6.28
2022-07-31T17:01:57.669Z,5.63
2022-07-31T17:04:01.769Z,7.07
2022-07-31T17:06:38.276Z,6.43
2022-07-31T17:09:15.285Z,5.53
2022-07-31T17:11:44.592Z,6.40
2022-07-31T17:14:11.389Z,10.55
2022-07-31T17:16:38.125Z,6.50
2022-07-31T17:19:05.611Z,6.93
2022-07-31T17:21:32.656Z,7.25
2022-07-31T17:23:59.693Z,11.38
2022-07-31T17:26:26.667Z,15.15
2022-07-31T17:28:55.771Z,9.60
2022-07-31T17:31:22.511Z,7.15
2022-07-31T17:33:58.485Z,6.00
2022-07-31T17:36:28.388Z,7.50
2022-07-31T17:38:55.430Z,7.15
2022-07-31T17:41:24.841Z,5.90
2022-07-31T17:43:53.546Z,5.07
2022-07-31T17:46:22.146Z,10.07
2022-07-31T17:48:56.315Z,6.68
2022-07-31T17:51:23.103Z,8.35
2022-07-31T17:53:55.181Z,4.80
2022-07-31T17:56:26.367Z,9.48
2022-07-31T17:58:53.090Z,8.77
2022-07-31T18:01:19.787Z,6.15
2022-07-31T18:03:46.558Z,11.30
2022-07-31T18:06:13.346Z,4.85
2022-07-31T18:08:39.977Z,7.63
2022-07-31T18:11:08.137Z,6.28
2022-07-31T18:13:47.721Z,5.35
2022-07-31T18:16:15.758Z,5.40
2022-07-31T18:18:42.456Z,4.75
2022-07-31T18:21:09.311Z,4.93
2022-07-31T18:23:36.054Z,8.25
2022-07-31T18:26:03.860Z,4.68
2022-07-31T18:28:33.800Z,6.28
2022-07-31T18:31:03.390Z,5.15
2022-07-31T18:33:30.015Z,4.63
2022-07-31T18:35:56.845Z,5.75
2022-07-31T18:38:23.493Z,4.32
2022-07-31T18:40:50.146Z,6.68
2022-07-31T18:43:16.975Z,4.88
2022-07-31T18:45:43.660Z,3.88
2022-07-31T18:48:10.338Z,5.35
2022-07-31T18:51:00.330Z,5.88
2022-07-31T18:53:24.179Z,6.18
2022-07-31T18:55:50.951Z,5.90
2022-07-31T18:58:17.753Z,10.32
2022-07-31T19:00:44.456Z,5.72
2022-07-31T19:03:11.290Z,5.05
2022-07-31T19:05:38.010Z,6.95
2022-07-31T19:08:05.306Z,4.70
2022-07-31T19:10:32.117Z,5.43
2022-07-31T19:12:59.499Z,6.75
2022-07-31T19:15:26.493Z,7.35
2022-07-31T19:17:54.772Z,10.50
2022-07-31T19:23:14.377Z,5.53
2022-07-31T19:26:02.529Z,10.27
2022-07-31T19:28:30.662Z,7.20
2022-07-31T19:30:57.353Z,12.98
2022-07-31T19:33:24.712Z,8.43
2022-07-31T19:35:56.994Z,8.75
2022-07-31T19:38:28.608Z,7.13
2022-07-31T19:40:55.411Z,6.28
2022-07-31T19:43:22.350Z,10.77
2022-07-31T19:46:10.888Z,11.00
2022-07-31T19:48:36.565Z,10.43
2022-07-31T19:51:04.075Z,6.97
2022-07-31T19:53:30.987Z,10.38
2022-07-31T19:55:57.825Z,10.30
2022-07-31T19:58:24.742Z,7.40
2022-07-31T20:00:51.475Z,8.25
2022-07-31T20:03:18.617Z,8.50
2022-07-31T20:05:45.395Z,10.38
2022-07-31T20:08:12.018Z,12.70
2022-07-31T20:10:38.695Z,8.15
2022-07-31T20:13:05.419Z,8.27
2022-07-31T20:15:52.501Z,8.38
2022-07-31T20:18:27.888Z,13.35
2022-07-31T20:20:57.391Z,10.90
2022-07-31T20:23:25.360Z,8.75
2022-07-31T20:25:52.199Z,15.43
2022-07-31T20:28:18.856Z,13.00
2022-07-31T20:30:45.569Z,7.35
2022-07-31T20:33:13.376Z,10.65
2022-07-31T20:35:49.213Z,10.82
2022-07-31T20:38:21.405Z,10.60
2022-07-31T20:40:53.792Z,7.72
2022-07-31T20:43:27.844Z,12.85
2022-07-31T20:45:58.739Z,9.07
2022-07-31T20:48:32.009Z,9.70
2022-07-31T20:51:00.435Z,13.35
2022-07-31T20:53:27.532Z,8.52
2022-07-31T20:55:54.257Z,12.93
2022-07-31T20:58:22.499Z,11.98
2022-07-31T21:00:52.121Z,9.57
2022-07-31T21:03:20.033Z,12.73
2022-07-31T21:07:50.246Z,11.27
2022-07-31T21:10:16.868Z,10.65
2022-07-31T21:12:43.611Z,14.48
2022-07-31T21:15:42.339Z,12.52
2022-07-31T21:17:57.740Z,11.75
2022-07-31T21:20:31.325Z,11.70
2022-07-31T21:23:11.808Z,15.48
2022-07-31T21:25:38.954Z,11.95
2022-07-31T21:28:06.231Z,10.25
2022-07-31T21:30:35.008Z,11.13
2022-07-31T21:33:02.001Z,12.00
2022-07-31T21:35:36.882Z,13.70
2022-07-31T21:38:05.036Z,10.75
2022-07-31T21:40:34.908Z,15.13
2022-07-31T21:43:02.249Z,11.40
2022-07-31T21:45:41.229Z,12.98
2022-07-31T21:48:17.176Z,12.43
2022-07-31T21:50:45.721Z,11.35
2022-07-31T21:53:13.595Z,12.13
2022-07-31T21:55:40.908Z,11.57
2022-07-31T21:58:09.107Z,12.95
2022-07-31T22:00:37.038Z,10.30
2022-07-31T22:03:04.374Z,24.27
2022-07-31T22:05:50.083Z,9.73
2022-07-31T22:08:17.184Z,8.13
2022-07-31T22:10:43.879Z,12.75
2022-07-31T22:13:10.618Z,10.57
2022-07-31T22:15:55.646Z,19.50
2022-07-31T22:18:26.314Z,10.55
2022-07-31T22:20:53.637Z,10.48
2022-07-31T22:23:20.596Z,9.57
2022-07-31T22:25:50.838Z,10.02
2022-07-31T22:28:20.536Z,12.20
2022-07-31T22:30:47.577Z,22.35
2022-07-31T22:33:14.416Z,10.20
2022-07-31T22:35:41.197Z,6.13
2022-07-31T22:38:09.158Z,8.73
2022-07-31T22:40:36.052Z,7.40
2022-07-31T22:43:03.505Z,7.00
2022-07-31T22:45:30.517Z,7.03
2022-07-31T22:47:57.825Z,19.13
2022-07-31T22:50:24.814Z,15.38
2022-07-31T22:52:51.951Z,13.27
2022-07-31T22:55:18.694Z,7.05
2022-07-31T22:57:45.604Z,9.40
2022-07-31T23:00:14.613Z,9.93
2022-07-31T23:02:42.766Z,8.77
2022-07-31T23:05:10.142Z,10.80
2022-07-31T23:07:37.353Z,11.43
2022-07-31T23:10:08.355Z,8.65
2022-07-31T23:12:35.122Z,9.95
2022-07-31T23:15:01.853Z,12.25
2022-07-31T23:17:28.520Z,6.90
2022-07-31T23:19:55.653Z,11.25
2022-07-31T23:22:33.763Z,8.60
2022-07-31T23:25:10.334Z,7.07
2022-07-31T23:27:37.002Z,8.65
2022-07-31T23:30:04.200Z,7.47
2022-07-31T23:32:30.825Z,8.52
2022-07-31T23:34:57.488Z,9.63
2022-07-31T23:37:24.127Z,12.38
2022-07-31T23:39:50.774Z,12.30
2022-07-31T23:42:36.008Z,10.38
2022-07-31T23:45:02.657Z,9.02
2022-07-31T23:47:45.993Z,10.02
2022-07-31T23:50:14.467Z,8.40
2022-07-31T23:52:41.841Z,10.60
2022-07-31T23:55:08.889Z,10.88
2022-07-31T23:57:36.144Z,10.35
